Challenge Plus — 9VJH7 — position and weather

sailwx.info

Track history (hours):
 
Tides and Currents Weather Stations Pressure Air Temp Water Temp Dewpoint Dewpoint Depression Visibility Wind Speed Wind Dir Waves Ship Positions

Challenge Plus

Last reported at 2015-Jan-29 18:10 UTC. Time now 2015-Jan-31 05:30 UTC.
Position N 01°16' E 104°13'.

Length 179 m; draft 11.8 m.

Type: Tanker. MMSI: 565267000.

Date/timePositionNaut miles runAvg speedWind from/ knotsBaromVisibWave heightAir tempDewpointWater temp
2015-Jan-29 18:10N 01°16' E 104°13'610.1
2015-Jan-29 17:33N 01°15' E 104°07'10 9.8
2015-Jan-29 16:34N 01°14' E 103°57'9 8.3
2015-Jan-29 15:30N 01°12' E 103°49'4 4.0
2015-Jan-29 14:34N 01°14' E 103°46'0 0.0
2015-Jan-29 13:30N 01°14' E 103°46'0 0.0
2015-Jan-29 12:30N 01°14' E 103°46'0 0.0
2015-Jan-29 11:30N 01°14' E 103°46'0 0.0
2015-Jan-29 10:30N 01°14' E 103°46'0 0.0
2015-Jan-29 09:27N 01°14' E 103°46'0 0.0
2015-Jan-29 08:30N 01°14' E 103°46'0 0.0
2015-Jan-29 07:33N 01°14' E 103°46'0 0.0
2015-Jan-29 06:30N 01°14' E 103°46'0 0.0
2015-Jan-29 05:33N 01°14' E 103°46'0 0.0
2015-Jan-29 04:27N 01°14' E 103°46'0 0.0
2015-Jan-29 03:30N 01°14' E 103°46'0 0.0
2015-Jan-29 02:33N 01°14' E 103°46'0 0.0
2015-Jan-29 01:30N 01°14' E 103°46'0 0.0
2015-Jan-29 00:30N 01°14' E 103°46'0 0.0
2015-Jan-28 23:33N 01°14' E 103°46'0 0.0
2015-Jan-28 22:30N 01°14' E 103°46'0 0.0
2015-Jan-28 21:30N 01°14' E 103°46'0 0.0
2015-Jan-28 20:30N 01°14' E 103°46'0 0.0
2015-Jan-28 19:30N 01°14' E 103°46'0 0.0
2015-Jan-28 18:30N 01°14' E 103°46'0 0.0
2015-Jan-28 17:30N 01°14' E 103°46'0 0.0
2015-Jan-28 16:30N 01°14' E 103°46'0 0.0
2015-Jan-28 15:30N 01°14' E 103°46'0 0.0
2015-Jan-28 14:33N 01°14' E 103°46'0 0.0
2015-Jan-28 13:30N 01°14' E 103°46'0 0.0
2015-Jan-28 12:30N 01°14' E 103°46'0 0.0
2015-Jan-28 11:30N 01°14' E 103°46'0 0.0
2015-Jan-28 10:30N 01°14' E 103°46'0 0.0
2015-Jan-28 09:33N 01°14' E 103°46'0 0.0
2015-Jan-28 08:30N 01°14' E 103°46'0 0.0
2015-Jan-28 07:30N 01°14' E 103°46'0 0.0
2015-Jan-28 06:30N 01°14' E 103°46'0 0.0
2015-Jan-28 05:30N 01°14' E 103°46'0 0.0
2015-Jan-28 04:30N 01°14' E 103°46'0 0.0
2015-Jan-28 03:30N 01°14' E 103°46'0 0.0
2015-Jan-28 02:30N 01°14' E 103°46'0 0.0
2015-Jan-28 01:30N 01°14' E 103°46'0 0.0
2015-Jan-28 00:30N 01°14' E 103°46'0 0.0
2015-Jan-27 23:30N 01°14' E 103°46'0 0.0
2015-Jan-27 22:30N 01°14' E 103°46'0 0.0
2015-Jan-27 21:30N 01°14' E 103°46'0 0.0
2015-Jan-27 20:30N 01°14' E 103°46'0 0.0
2015-Jan-27 19:30N 01°14' E 103°46'0 0.0
2015-Jan-27 18:30N 01°14' E 103°46'0 0.0
2015-Jan-27 17:30N 01°14' E 103°46'0 0.0
2015-Jan-27 16:30N 01°14' E 103°46'0 0.0
2015-Jan-27 15:30N 01°14' E 103°46'0 0.0
2015-Jan-27 14:30N 01°14' E 103°46'0 0.0
2015-Jan-27 13:30N 01°14' E 103°46'0 0.0
2015-Jan-27 12:30N 01°14' E 103°46'0 0.0
2015-Jan-27 11:33N 01°14' E 103°46'1 1.0
2015-Jan-27 10:33N 01°14' E 103°47'1 0.7
2015-Jan-27 09:31N 01°14' E 103°48'0 0.1
2015-Jan-27 08:28N 01°14' E 103°48'0 0.1
2015-Jan-27 07:28N 01°14' E 103°48'0 0.0
2015-Jan-27 06:19N 01°14' E 103°48'0 0.1
2015-Jan-27 05:31N 01°14' E 103°48'0 0.0
2015-Jan-27 04:22N 01°14' E 103°48'0 0.0
2015-Jan-27 03:22N 01°14' E 103°48'0 0.1
2015-Jan-27 02:28N 01°14' E 103°48'0 0.0
2015-Jan-27 01:31N 01°14' E 103°48'0 0.1
2015-Jan-27 00:28N 01°14' E 103°48'0 0.0
2015-Jan-26 23:28N 01°14' E 103°48'0 0.1
2015-Jan-26 22:28N 01°14' E 103°48'0 0.0
2015-Jan-26 21:28N 01°14' E 103°48'0 0.0
2015-Jan-26 20:28N 01°14' E 103°48'0 0.0
2015-Jan-26 19:28N 01°14' E 103°48'0 0.1
2015-Jan-26 18:28N 01°14' E 103°47'0 0.2
2015-Jan-26 17:33N 01°14' E 103°47'5 0.2
2015-Jan-25 12:27N 01°18' E 103°43'3 3.3
2015-Jan-25 11:33N 01°15' E 103°44'3 0.2
2015-Jan-24 18:16N 01°14' E 103°41'7 4.3
2015-Jan-24 16:33N 01°14' E 103°49'0 0.0
2015-Jan-24 13:31N 01°14' E 103°49'0 0.0
2015-Jan-24 07:31N 01°14' E 103°49'0 0.1
2015-Jan-24 05:31N 01°14' E 103°49'0 0.0
2015-Jan-24 04:25N 01°14' E 103°49'0 0.0
2015-Jan-24 03:19N 01°14' E 103°49'0 0.0
2015-Jan-24 02:31N 01°14' E 103°49'0 0.1
2015-Jan-24 01:31N 01°14' E 103°49'0 0.0
2015-Jan-24 00:25N 01°14' E 103°49'0 0.1
2015-Jan-23 23:31N 01°14' E 103°49'0 0.0
2015-Jan-23 22:31N 01°14' E 103°49'0 0.0
2015-Jan-23 21:34N 01°14' E 103°49'0 0.0
2015-Jan-23 20:31N 01°14' E 103°49'0 0.1
2015-Jan-23 19:27N 01°14' E 103°49'0 0.0
2015-Jan-23 18:19N 01°14' E 103°49'0 0.1
2015-Jan-23 17:31N 01°14' E 103°49'0 0.1
2015-Jan-23 16:25N 01°14' E 103°49'0 0.1
2015-Jan-23 15:25N 01°14' E 103°49'0 0.1
2015-Jan-23 14:31N 01°14' E 103°49'0 0.1
2015-Jan-23 13:19N 01°14' E 103°49'0 0.2
2015-Jan-23 12:34N 01°14' E 103°49'0 0.1
2015-Jan-23 11:25N 01°14' E 103°49'5 5.4
2015-Jan-23 10:33N 01°14' E 103°54'1110.8
2015-Jan-23 09:33N 01°17' E 104°04'9 8.5
2015-Jan-23 08:31N 01°23' E 103°58'  
2015-Jan-19 21:19N 01°25' E 103°56'7 9.1
2015-Jan-19 20:33N 01°22' E 104°02'6 5.5
2015-Jan-19 19:33N 01°17' E 104°01'6 6.5
2015-Jan-19 18:33N 01°15' E 103°55'  
Track history (hours):
 
Tides and Currents Weather Stations Pressure Air Temp Water Temp Dewpoint Dewpoint Depression Visibility Wind Speed Wind Dir Waves Ship Positions

Challenge Plus

Last reported at 2015-Jan-29 18:10 UTC. Time now 2015-Jan-31 05:30 UTC.
Position N 01°16' E 104°13'.

Length 179 m; draft 11.8 m.

Type: Tanker. MMSI: 565267000.

Date/timePositionNaut miles runAvg speedWind from/ knotsBaromVisibWave heightAir tempDewpointWater temp
2015-Jan-29 18:10N 01°16' E 104°13'610.1
2015-Jan-29 17:33N 01°15' E 104°07'10 9.8
2015-Jan-29 16:34N 01°14' E 103°57'9 8.3
2015-Jan-29 15:30N 01°12' E 103°49'4 4.0
2015-Jan-29 14:34N 01°14' E 103°46'0 0.0
2015-Jan-29 13:30N 01°14' E 103°46'0 0.0
2015-Jan-29 12:30N 01°14' E 103°46'0 0.0
2015-Jan-29 11:30N 01°14' E 103°46'0 0.0
2015-Jan-29 10:30N 01°14' E 103°46'0 0.0
2015-Jan-29 09:27N 01°14' E 103°46'0 0.0
2015-Jan-29 08:30N 01°14' E 103°46'0 0.0
2015-Jan-29 07:33N 01°14' E 103°46'0 0.0
2015-Jan-29 06:30N 01°14' E 103°46'0 0.0
2015-Jan-29 05:33N 01°14' E 103°46'0 0.0
2015-Jan-29 04:27N 01°14' E 103°46'0 0.0
2015-Jan-29 03:30N 01°14' E 103°46'0 0.0
2015-Jan-29 02:33N 01°14' E 103°46'0 0.0
2015-Jan-29 01:30N 01°14' E 103°46'0 0.0
2015-Jan-29 00:30N 01°14' E 103°46'0 0.0
2015-Jan-28 23:33N 01°14' E 103°46'0 0.0
2015-Jan-28 22:30N 01°14' E 103°46'0 0.0
2015-Jan-28 21:30N 01°14' E 103°46'0 0.0
2015-Jan-28 20:30N 01°14' E 103°46'0 0.0
2015-Jan-28 19:30N 01°14' E 103°46'0 0.0
2015-Jan-28 18:30N 01°14' E 103°46'0 0.0
2015-Jan-28 17:30N 01°14' E 103°46'0 0.0
2015-Jan-28 16:30N 01°14' E 103°46'0 0.0
2015-Jan-28 15:30N 01°14' E 103°46'0 0.0
2015-Jan-28 14:33N 01°14' E 103°46'0 0.0
2015-Jan-28 13:30N 01°14' E 103°46'0 0.0
2015-Jan-28 12:30N 01°14' E 103°46'0 0.0
2015-Jan-28 11:30N 01°14' E 103°46'0 0.0
2015-Jan-28 10:30N 01°14' E 103°46'0 0.0
2015-Jan-28 09:33N 01°14' E 103°46'0 0.0
2015-Jan-28 08:30N 01°14' E 103°46'0 0.0
2015-Jan-28 07:30N 01°14' E 103°46'0 0.0
2015-Jan-28 06:30N 01°14' E 103°46'0 0.0
2015-Jan-28 05:30N 01°14' E 103°46'0 0.0
2015-Jan-28 04:30N 01°14' E 103°46'0 0.0
2015-Jan-28 03:30N 01°14' E 103°46'0 0.0
2015-Jan-28 02:30N 01°14' E 103°46'0 0.0
2015-Jan-28 01:30N 01°14' E 103°46'0 0.0
2015-Jan-28 00:30N 01°14' E 103°46'0 0.0
2015-Jan-27 23:30N 01°14' E 103°46'0 0.0
2015-Jan-27 22:30N 01°14' E 103°46'0 0.0
2015-Jan-27 21:30N 01°14' E 103°46'0 0.0
2015-Jan-27 20:30N 01°14' E 103°46'0 0.0
2015-Jan-27 19:30N 01°14' E 103°46'0 0.0
2015-Jan-27 18:30N 01°14' E 103°46'0 0.0
2015-Jan-27 17:30N 01°14' E 103°46'0 0.0
2015-Jan-27 16:30N 01°14' E 103°46'0 0.0
2015-Jan-27 15:30N 01°14' E 103°46'0 0.0
2015-Jan-27 14:30N 01°14' E 103°46'0 0.0
2015-Jan-27 13:30N 01°14' E 103°46'0 0.0
2015-Jan-27 12:30N 01°14' E 103°46'0 0.0
2015-Jan-27 11:33N 01°14' E 103°46'1 1.0
2015-Jan-27 10:33N 01°14' E 103°47'1 0.7
2015-Jan-27 09:31N 01°14' E 103°48'0 0.1
2015-Jan-27 08:28N 01°14' E 103°48'0 0.1
2015-Jan-27 07:28N 01°14' E 103°48'0 0.0
2015-Jan-27 06:19N 01°14' E 103°48'0 0.1
2015-Jan-27 05:31N 01°14' E 103°48'0 0.0
2015-Jan-27 04:22N 01°14' E 103°48'0 0.0
2015-Jan-27 03:22N 01°14' E 103°48'0 0.1
2015-Jan-27 02:28N 01°14' E 103°48'0 0.0
2015-Jan-27 01:31N 01°14' E 103°48'0 0.1
2015-Jan-27 00:28N 01°14' E 103°48'0 0.0
2015-Jan-26 23:28N 01°14' E 103°48'0 0.1
2015-Jan-26 22:28N 01°14' E 103°48'0 0.0
2015-Jan-26 21:28N 01°14' E 103°48'0 0.0
2015-Jan-26 20:28N 01°14' E 103°48'0 0.0
2015-Jan-26 19:28N 01°14' E 103°48'0 0.1
2015-Jan-26 18:28N 01°14' E 103°47'0 0.2
2015-Jan-26 17:33N 01°14' E 103°47'5 0.2
2015-Jan-25 12:27N 01°18' E 103°43'3 3.3
2015-Jan-25 11:33N 01°15' E 103°44'3 0.2
2015-Jan-24 18:16N 01°14' E 103°41'7 4.3
2015-Jan-24 16:33N 01°14' E 103°49'0 0.0
2015-Jan-24 13:31N 01°14' E 103°49'0 0.0
2015-Jan-24 07:31N 01°14' E 103°49'0 0.1
2015-Jan-24 05:31N 01°14' E 103°49'0 0.0
2015-Jan-24 04:25N 01°14' E 103°49'0 0.0
2015-Jan-24 03:19N 01°14' E 103°49'0 0.0
2015-Jan-24 02:31N 01°14' E 103°49'0 0.1
2015-Jan-24 01:31N 01°14' E 103°49'0 0.0
2015-Jan-24 00:25N 01°14' E 103°49'0 0.1
2015-Jan-23 23:31N 01°14' E 103°49'0 0.0
2015-Jan-23 22:31N 01°14' E 103°49'0 0.0
2015-Jan-23 21:34N 01°14' E 103°49'0 0.0
2015-Jan-23 20:31N 01°14' E 103°49'0 0.1
2015-Jan-23 19:27N 01°14' E 103°49'0 0.0
2015-Jan-23 18:19N 01°14' E 103°49'0 0.1
2015-Jan-23 17:31N 01°14' E 103°49'0 0.1
2015-Jan-23 16:25N 01°14' E 103°49'0 0.1
2015-Jan-23 15:25N 01°14' E 103°49'0 0.1
2015-Jan-23 14:31N 01°14' E 103°49'0 0.1
2015-Jan-23 13:19N 01°14' E 103°49'0 0.2
2015-Jan-23 12:34N 01°14' E 103°49'0 0.1
2015-Jan-23 11:25N 01°14' E 103°49'5 5.4
2015-Jan-23 10:33N 01°14' E 103°54'1110.8
2015-Jan-23 09:33N 01°17' E 104°04'9 8.5
2015-Jan-23 08:31N 01°23' E 103°58'  
2015-Jan-19 21:19N 01°25' E 103°56'7 9.1
2015-Jan-19 20:33N 01°22' E 104°02'6 5.5
2015-Jan-19 19:33N 01°17' E 104°01'6 6.5
2015-Jan-19 18:33N 01°15' E 103°55'  

Dump ship's entire track history